• Join FlightAware (Why Join?)
  • Login
  • US Flag 
04:54PM EDT


 

Airport Tracker/Info


-or-


 

Live Flight TrackerFlight Track Log ✈ AVN50 ✈ 12-Oct-2013 ✈ NVVV / VLI - NZAA / AKL

Flight Track Log - Related Links

Times and Time Zones

All times are in EDT time to prevent confusion due to time zone crossing. See the AVN50 flight status page for this flight to view local times or setup timezone preferences in your user account.

Time Position Orientation Groundspeed Altitude Reporting Facility
EDT Latitude Longitude Course Direction KTS MPH feet Rate Location/Type
04:08PM -18.0080 168.4035 166° South  Level FlightAware Approximate
04:09PM -18.1109 168.4314 166° South  Level FlightAware Approximate
04:10PM -18.2138 168.4594 166° South  Level FlightAware Approximate
04:11PM -18.3167 168.4874 166° South  Level FlightAware Approximate
04:12PM -18.4196 168.5155 165° South  Level FlightAware Approximate
04:13PM -18.5225 168.5436 165° South  Level FlightAware Approximate
04:14PM -18.6253 168.5717 165° South  Level FlightAware Approximate
04:15PM -18.7282 168.5999 165° South  Level FlightAware Approximate
04:16PM -18.8311 168.6281 165° South  Level FlightAware Approximate
04:17PM -18.9339 168.6563 165° South  Level FlightAware Approximate
04:18PM -19.0368 168.6846 165° South  Level FlightAware Approximate
04:19PM -19.1396 168.7128 165° South  Level FlightAware Approximate
04:20PM -19.2425 168.7412 165° South  Level FlightAware Approximate
04:21PM -19.3453 168.7695 165° South  Level FlightAware Approximate
04:22PM -19.4482 168.7979 165° South  Level FlightAware Approximate
04:23PM -19.5510 168.8264 165° South  Level FlightAware Approximate
04:24PM -19.6538 168.8549 165° South  Level FlightAware Approximate
04:25PM -19.7567 168.8834 165° South  Level FlightAware Approximate
04:26PM -19.8595 168.9119 165° South  Level FlightAware Approximate
04:27PM -19.9623 168.9405 165° South  Level FlightAware Approximate
04:28PM -20.0651 168.9691 165° South  Level FlightAware Approximate
04:29PM -20.1679 168.9978 165° South  Level FlightAware Approximate
04:30PM -20.2707 169.0265 165° South  Level FlightAware Approximate
04:31PM -20.3735 169.0552 165° South  Level FlightAware Approximate
04:32PM -20.4763 169.0840 165° South  Level FlightAware Approximate
04:33PM -20.5791 169.1128 165° South  Level FlightAware Approximate
04:34PM -20.6819 169.1417 165° South  Level FlightAware Approximate
04:35PM -20.7847 169.1706 165° South  Level FlightAware Approximate
04:36PM -20.8874 169.1995 165° South  Level FlightAware Approximate
04:37PM -20.9902 169.2285 165° South  Level FlightAware Approximate
04:38PM -21.0930 169.2575 165° South  Level FlightAware Approximate
04:39PM -21.1957 169.2865 165° South  Level FlightAware Approximate
04:40PM -21.2985 169.3156 165° South  Level FlightAware Approximate
04:41PM -21.4013 169.3447 165° South  Level FlightAware Approximate
04:42PM -21.5040 169.3739 165° South  Level FlightAware Approximate
04:43PM -21.6067 169.4031 165° South  Level FlightAware Approximate
04:44PM -21.7095 169.4324 165° South  Level FlightAware Approximate
04:45PM -21.8122 169.4617 165° South  Level FlightAware Approximate
04:46PM -21.9149 169.4910 165° South  Level FlightAware Approximate
04:47PM -22.0176 169.5204 165° South  Level FlightAware Approximate
04:48PM -22.1203 169.5498 165° South  Level FlightAware Approximate
04:49PM -22.2231 169.5793 165° South  Level FlightAware Approximate
04:50PM -22.3258 169.6088 165° South  Level FlightAware Approximate
04:51PM -22.4285 169.6384 165° South  Level FlightAware Approximate
04:52PM -22.5312 169.6680 165° South  Level FlightAware Approximate
04:53PM -22.6338 169.6976 165° South  Level FlightAware Approximate
04:54PM -22.7365 169.7273 165° South  Level FlightAware Approximate
04:55PM -22.8392 169.7570 165° South  Level FlightAware Approximate
04:56PM -22.9419 169.7868 165° South  Level FlightAware Approximate
04:57PM -23.0445 169.8166 165° South  Level FlightAware Approximate
04:58PM -23.1472 169.8465 165° South  Level FlightAware Approximate
04:59PM -23.2498 169.8764 165° South  Level FlightAware Approximate
05:00PM -23.3525 169.9064 165° South  Level FlightAware Approximate
05:01PM -23.4551 169.9364 165° South  Level FlightAware Approximate
05:02PM -23.5578 169.9664 165° South  Level FlightAware Approximate
05:03PM -23.6604 169.9965 165° South  Level FlightAware Approximate
05:04PM -23.7630 170.0267 165° South  Level FlightAware Approximate
05:05PM -23.8657 170.0568 165° South  Level FlightAware Approximate
05:06PM -23.9683 170.0871 165° South  Level FlightAware Approximate
05:07PM -24.0704 170.1194 164° South  Level Estimated
05:08PM -24.1728 170.1504 165° South  Level FlightAware Approximate
05:09PM -24.2752 170.1814 165° South  Level FlightAware Approximate
05:10PM -24.3777 170.2125 165° South  Level FlightAware Approximate
05:11PM -24.4801 170.2436 165° South  Level FlightAware Approximate
05:12PM -24.5825 170.2748 165° South  Level FlightAware Approximate
05:13PM -24.6849 170.3060 165° South  Level FlightAware Approximate
05:13PM -25.7333 170.6167 164° South 473 544  Level New Zealand
05:14PM -24.7873 170.3373 164° South  Level FlightAware Approximate
05:15PM -24.8897 170.3686 164° South  Level FlightAware Approximate
05:15PM -25.9833 170.7000 163° South 462 532  Level New Zealand
05:17PM -26.2333 170.7667 167° South 462 532 540 Level New Zealand
05:19PM -26.4833 170.8500 163° South 462 532 540 Level New Zealand
05:21PM -26.7333 170.9333 163° South 462 532 600 Level New Zealand
05:23PM -26.9833 171.0167 163° South 462 532 600 Level New Zealand
05:25PM -27.2333 171.0833 167° South 462 532 600 Level New Zealand
05:27PM -27.4667 171.1667 162° South 462 532 660 Level New Zealand
05:29PM -27.7167 171.2500 164° South 462 532 660 Level New Zealand
05:31PM -27.9667 171.3333 164° South 462 532 720 Level New Zealand
05:33PM -28.2167 171.4167 164° South 462 532 720 Level New Zealand
05:35PM -28.4667 171.5000 164° South 462 532 780 Level New Zealand
05:37PM -28.7167 171.5833 164° South 462 532 780 Level New Zealand
05:39PM -28.9667 171.6667 164° South 462 532 840 Level New Zealand
05:41PM -29.2000 171.7333 166° South 462 532 900 Level New Zealand
05:43PM -29.4500 171.8167 164° South 462 532 960 Level New Zealand
05:45PM -29.7000 171.9167 161° South 468 539 1,020 Level New Zealand
05:47PM -29.9500 172.0000 164° South 468 539 1,080 Level New Zealand
05:49PM -30.2000 172.0833 164° South 468 539 1,140 Level New Zealand
05:51PM -30.4500 172.1667 164° South 463 533 1,200 Level New Zealand
05:53PM -30.6833 172.2500 163° South 463 533 1,320 Level New Zealand
05:55PM -30.9333 172.3333 164° South 463 533 1,440 Level New Zealand
05:57PM -31.1833 172.4167 164° South 463 533 1,560 Level New Zealand
05:59PM -31.4333 172.5000 164° South 463 533 1,680 Level New Zealand
06:01PM -31.6833 172.6000 161° South 463 533 1,860 Level New Zealand
06:03PM -31.9167 172.6833 163° South 463 533 2,100 Level New Zealand
06:05PM -32.1667 172.7667 164° South 463 533 2,400 Level New Zealand
06:07PM -32.4167 172.8500 164° South 463 533 2,820 Level New Zealand
06:09PM -32.6667 172.9500 161° South 463 533 3,360 Level New Zealand
06:11PM -32.9167 173.0333 164° South 463 533 4,200 Level New Zealand
06:13PM -33.1500 173.1167 163° South 463 533 5,580 Level New Zealand
06:15PM -33.4000 173.2167 162° South 463 533 8,220 Level New Zealand
06:17PM -33.6500 173.3000 164° South 463 533 15,540 Level New Zealand
06:17PM -33.6850 173.3170 164° South 440 506 35,000 46,620 Climbing FlightAware
06:17PM -33.7410 173.3390 162° South 441 507 35,000  Level FlightAware
06:18PM -33.8333 173.3667 162° South 448 516  Descending New Zealand
06:18PM -33.8470 173.3790 162° South 442 509 35,000 42,840 Climbing FlightAware
06:19PM -33.9220 173.4220 155° Southeast 466 536 35,000  Level FlightAware
06:19PM -33.9780 173.4630 149° Southeast 459 528 35,000  Level FlightAware
06:20PM -34.0520 173.5180 149° Southeast 458 527 35,000  Level FlightAware
06:20PM -34.0667 173.5167 149° Southeast 464 534  Descending New Zealand
06:21PM -34.1070 173.5600 148° Southeast 457 526 35,000 33,300 Climbing FlightAware
06:21PM -34.1667 173.6000 148° Southeast 461 531  Descending New Zealand
06:21PM -34.1720 173.6080 148° Southeast 456 525 35,000 51,180 Climbing FlightAware
06:22PM -34.2460 173.6640 148° Southeast 459 528 35,000  Level FlightAware
06:22PM -34.3100 173.7120 148° Southeast 469 540 35,000  Level FlightAware
06:23PM -34.3750 173.7600 149° Southeast 470 541 35,000  Level FlightAware
06:23PM -34.4300 173.8010 148° Southeast 471 542 35,000  Level FlightAware
06:24PM -34.4950 173.8510 148° Southeast 471 542 35,000  Level FlightAware
06:24PM -34.5167 173.8500 148° Southeast 470 541  Descending New Zealand
06:25PM -34.5600 173.8990 149° Southeast 463 533 35,000 30,840 Climbing FlightAware
06:25PM -34.6167 173.9500 149° Southeast 470 541  Descending New Zealand
06:25PM -34.6340 173.9560 149° Southeast 463 533 35,000 56,700 Climbing FlightAware
06:26PM -34.6900 173.9980 148° Southeast 463 533 35,000  Level FlightAware
06:26PM -34.7550 174.0480 148° Southeast 461 531 35,000  Level FlightAware
06:27PM -34.8280 174.1040 148° Southeast 462 532 35,000  Level FlightAware
06:28PM -34.8840 174.1470 148° Southeast 461 531 35,000  Level FlightAware
06:28PM -34.9460 174.1940 148° Southeast 462 532 35,000  Level FlightAware
06:28PM -34.9667 174.2000 148° Southeast 468 539  Descending New Zealand
06:29PM -35.0130 174.2450 148° Southeast 463 533 35,000 32,280 Climbing FlightAware
06:29PM -35.0667 174.2833 148° Southeast 470 541  Descending New Zealand
06:29PM -35.0780 174.2950 148° Southeast 471 542 35,000 56,700 Climbing FlightAware
06:30PM -35.1410 174.3430 148° Southeast 471 542 35,000  Level FlightAware
06:31PM -35.2070 174.3940 148° Southeast 472 543 35,000  Level FlightAware
06:31PM -35.2730 174.4440 148° Southeast 466 536 35,000 -120 Level FlightAware
06:32PM -35.3380 174.4950 147° Southeast 462 532 34,900 -1,140 Descending FlightAware
06:32PM -35.4000 174.5430 147° Southeast 462 532 33,700 -2,280 Descending FlightAware
06:32PM -35.4167 174.5500 147° Southeast 470 541 -2,340 Descending New Zealand
06:33PM -35.4660 174.5950 147° Southeast 458 527 32,300 28,560 Climbing FlightAware
06:33PM -35.5167 174.6333 147° Southeast 462 532 -2,340 Descending New Zealand
06:33PM -35.5280 174.6430 147° Southeast 459 528 31,000 45,660 Climbing FlightAware
06:34PM -35.5910 174.6910 148° Southeast 446 513 29,700 -2,100 Descending FlightAware
06:35PM -35.6520 174.7390 147° Southeast 441 507 28,600 -1,980 Descending FlightAware
06:35PM -35.7120 174.7860 148° Southeast 426 490 27,400 -2,100 Descending FlightAware
06:36PM -35.7700 174.8310 148° Southeast 422 486 26,200 -1,740 Descending FlightAware
06:36PM -35.8270 174.8760 148° Southeast 403 464 25,400 -1,680 Descending FlightAware
06:36PM -35.8333 174.8833 148° Southeast 412 474 -1,920 Descending New Zealand
06:37PM -35.8820 174.9190 148° Southeast 403 464 24,300 21,300 Climbing FlightAware
06:37PM -35.9333 174.9500 148° Southeast 401 461 -2,100 Descending New Zealand
06:38PM -35.9370 174.9630 148° Southeast 398 458 23,100 29,820 Climbing FlightAware
06:38PM -35.9990 175.0120 147° Southeast 382 440 21,900 -1,860 Descending FlightAware
06:39PM -36.0530 175.0540 148° Southeast 382 440 20,800 -1,920 Descending FlightAware
06:39PM -36.1040 175.0950 148° Southeast 366 421 19,700 -1,800 Descending FlightAware
06:39PM -36.1167 175.1000 148° Southeast 377 434 -1,740 Descending New Zealand
06:40PM -36.1540 175.1340 148° Southeast 362 417 18,700 17,100 Climbing FlightAware
06:41PM -36.2000 175.1667 148° Southeast 360 414 -1,740 Descending New Zealand
06:41PM -36.2020 175.1720 148° Southeast 347 399 17,700 27,780 Climbing FlightAware
06:41PM -36.2500 175.2100 147° Southeast 345 397 16,700 -1,500 Descending FlightAware
06:42PM -36.3080 175.2570 147° Southeast 326 375 15,700 -1,440 Descending FlightAware
06:43PM -36.3610 175.2940 147° Southeast 303 349 14,700 -1,440 Descending FlightAware
06:43PM -36.3667 175.3000 147° Southeast 320 368 -1,140 Descending New Zealand
06:43PM -36.3730 175.2950 176° South 292 336 14,500 22,320 Climbing FlightAware
06:43PM -36.4080 175.2830 195° South 262 302 13,800 -1,440 Descending FlightAware
06:44PM -36.4490 175.2640 200° South 255 293 13,000 -1,260 Descending FlightAware
06:44PM -36.4900 175.2450 200° South 239 275 12,300 -1,080 Descending FlightAware
06:45PM -36.5310 175.2300 196° South 235 270 11,700 -1,140 Descending FlightAware
06:46PM -36.5660 175.2220 196° South 233 268 11,000 -1,080 Descending FlightAware
06:46PM -36.5667 175.2167 196° South 240 276 -900 Descending New Zealand
06:46PM -36.6030 175.2110 193° South 235 270 10,500 9,720 Climbing FlightAware
06:47PM -36.6340 175.2020 193° South 230 265 9,900 -1,080 Descending FlightAware
06:47PM -36.6333 175.2000 193° South 233 268 -900 Descending New Zealand
06:47PM -36.6550 175.1960 193° South 232 267 9,600 13,920 Climbing FlightAware
06:47PM -36.6770 175.1890 194° South 231 266 9,300 -1,080 Descending FlightAware
06:48PM -36.6970 175.1830 194° South 229 264 8,900 -1,080 Descending FlightAware
06:48PM -36.7200 175.1770 192° South 215 247 8,600 -960 Descending FlightAware
06:48PM -36.7350 175.1730 192° South 218 251 8,300 -720 Descending FlightAware
06:49PM -36.7540 175.1680 192° South 198 228 8,200 -480 Descending FlightAware
06:49PM -36.7730 175.1620 194° South 199 229 8,000 -720 Descending FlightAware
06:49PM -36.7910 175.1570 193° South 196 226 7,700 -1,440 Descending FlightAware
06:50PM -36.8100 175.1510 194° South 199 229 7,000 -1,980 Descending FlightAware
06:50PM -36.8280 175.1460 193° South 201 231 6,400 -1,500 Descending FlightAware
06:50PM -36.8420 175.1390 202° Southwest 177 204 6,100 -840 Descending FlightAware
06:51PM -36.8560 175.1280 212° Southwest 163 188 5,900 -600 Descending FlightAware
06:51PM -36.8690 175.1170 214° Southwest 158 182 5,700 -780 Descending FlightAware
06:51PM -36.8810 175.1080 211° Southwest 151 174 5,400 -1,020 Descending FlightAware
06:52PM -36.8940 175.0970 214° Southwest 148 170 5,000 -1,020 Descending FlightAware
06:52PM -36.9060 175.0880 211° Southwest 140 161 4,700 -900 Descending FlightAware
06:52PM -36.9170 175.0790 213° Southwest 139 160 4,400 -720 Descending FlightAware
06:53PM -36.9300 175.0680 214° Southwest 147 169 4,200 -480 Descending FlightAware
06:53PM -36.9320 175.0650 230° Southwest 141 162 4,200 -360 Level FlightAware
06:53PM -36.9350 175.0570 245° Southwest 140 161 4,100 -600 Descending FlightAware
06:53PM -36.9410 175.0430 242° Southwest 137 158 3,900 -540 Descending FlightAware
06:54PM -36.9470 175.0230 249° West 137 158 3,700 -540 Descending FlightAware
06:54PM -36.9510 175.0060 254° West 140 161 3,500 -480 Descending FlightAware
06:54PM -36.9550 174.9920 250° West 145 167 3,400 -600 Descending FlightAware
06:55PM -36.9600 174.9750 250° West 147 169 3,100 -840 Descending FlightAware
06:55PM -36.9640 174.9580 254° West 148 170 2,800 -720 Descending FlightAware
06:55PM -36.9690 174.9430 247° West 148 170 2,600 -780 Descending FlightAware
06:56PM -36.9730 174.9260 254° West 144 166 2,300 -960 Descending FlightAware
06:56PM -36.9770 174.9140 247° West 143 165 2,100 -840 Descending FlightAware
06:56PM -36.9820 174.8950 252° West 132 152 1,800 -720 Descending FlightAware
06:57PM -36.9840 174.8890 247° West 132 152 1,700 -840 Descending FlightAware
06:57PM -36.9900 174.8660 252° West 130 150 1,300 -840 Descending FlightAware
06:57PM -36.9930 174.8540 253° West 119 137 1,100 -660 Descending FlightAware
06:58PM -36.9950 174.8490 243° Southwest 122 140 1,000 -780 Descending FlightAware
06:58PM -37.0010 174.8260 252° West 128 147 600 -720 Descending FlightAware
06:58PM -37.0040 174.8150 251° West 126 145 500 -420 Descending FlightAware
06:59PM -37.0100 174.7930 251° West 90 104 -960 Descending FlightAware
06:59PM -37.0167 174.7833 251° West 101 116  Level New Zealand